sensor_id;sensor_type;location;lat;lon;timestamp;P1;durP1;ratioP1;P2;durP2;ratioP2
7359;SDS011;3720;48.274;7.796;2022-10-20T00:01:50;16.95;;;12.15;;
7359;SDS011;3720;48.274;7.796;2022-10-20T00:04:22;15.30;;;11.55;;
7359;SDS011;3720;48.274;7.796;2022-10-20T00:06:54;15.95;;;11.10;;
7359;SDS011;3720;48.274;7.796;2022-10-20T00:09:25;13.02;;;10.55;;
7359;SDS011;3720;48.274;7.796;2022-10-20T00:11:57;10.85;;;8.63;;
7359;SDS011;3720;48.274;7.796;2022-10-20T00:14:29;8.85;;;7.95;;
7359;SDS011;3720;48.274;7.796;2022-10-20T00:17:03;8.77;;;7.88;;
7359;SDS011;3720;48.274;7.796;2022-10-20T00:19:35;9.40;;;8.32;;
7359;SDS011;3720;48.274;7.796;2022-10-20T00:22:07;13.20;;;9.52;;
7359;SDS011;3720;48.274;7.796;2022-10-20T00:24:39;13.00;;;9.68;;
7359;SDS011;3720;48.274;7.796;2022-10-20T00:27:11;12.52;;;9.80;;
7359;SDS011;3720;48.274;7.796;2022-10-20T00:29:43;13.85;;;10.88;;
7359;SDS011;3720;48.274;7.796;2022-10-20T00:32:16;14.57;;;10.80;;
7359;SDS011;3720;48.274;7.796;2022-10-20T00:34:48;14.50;;;10.85;;
7359;SDS011;3720;48.274;7.796;2022-10-20T00:37:19;13.07;;;10.07;;
7359;SDS011;3720;48.274;7.796;2022-10-20T00:39:51;15.73;;;9.80;;
7359;SDS011;3720;48.274;7.796;2022-10-20T00:42:23;12.25;;;9.10;;
7359;SDS011;3720;48.274;7.796;2022-10-20T00:44:56;10.55;;;8.82;;
7359;SDS011;3720;48.274;7.796;2022-10-20T00:47:34;13.57;;;9.00;;
7359;SDS011;3720;48.274;7.796;2022-10-20T00:50:11;12.25;;;8.88;;
7359;SDS011;3720;48.274;7.796;2022-10-20T00:52:46;14.30;;;9.20;;
7359;SDS011;3720;48.274;7.796;2022-10-20T00:55:20;10.93;;;7.85;;
7359;SDS011;3720;48.274;7.796;2022-10-20T00:57:55;11.82;;;8.50;;
7359;SDS011;3720;48.274;7.796;2022-10-20T01:00:29;11.70;;;8.80;;
7359;SDS011;3720;48.274;7.796;2022-10-20T01:03:02;10.82;;;8.70;;
7359;SDS011;3720;48.274;7.796;2022-10-20T01:05:36;10.68;;;8.65;;
7359;SDS011;3720;48.274;7.796;2022-10-20T01:08:08;13.68;;;9.45;;
7359;SDS011;3720;48.274;7.796;2022-10-20T01:10:40;10.77;;;8.57;;
7359;SDS011;3720;48.274;7.796;2022-10-20T01:13:21;11.07;;;8.65;;
7359;SDS011;3720;48.274;7.796;2022-10-20T01:16:07;10.45;;;8.48;;
7359;SDS011;3720;48.274;7.796;2022-10-20T01:18:48;9.70;;;8.70;;
7359;SDS011;3720;48.274;7.796;2022-10-20T01:21:39;9.40;;;8.25;;
7359;SDS011;3720;48.274;7.796;2022-10-20T01:24:29;9.88;;;8.68;;
7359;SDS011;3720;48.274;7.796;2022-10-20T01:27:24;10.85;;;8.50;;
7359;SDS011;3720;48.274;7.796;2022-10-20T01:30:07;12.63;;;8.10;;
7359;SDS011;3720;48.274;7.796;2022-10-20T01:32:53;9.98;;;7.75;;
7359;SDS011;3720;48.274;7.796;2022-10-20T01:35:43;10.07;;;7.55;;
7359;SDS011;3720;48.274;7.796;2022-10-20T01:38:24;10.75;;;7.45;;
7359;SDS011;3720;48.274;7.796;2022-10-20T01:41:01;12.75;;;8.23;;
7359;SDS011;3720;48.274;7.796;2022-10-20T01:43:41;9.10;;;7.63;;
7359;SDS011;3720;48.274;7.796;2022-10-20T01:46:15;10.43;;;7.40;;
7359;SDS011;3720;48.274;7.796;2022-10-20T01:48:49;10.38;;;8.05;;
7359;SDS011;3720;48.274;7.796;2022-10-20T01:51:23;11.70;;;8.13;;
7359;SDS011;3720;48.274;7.796;2022-10-20T01:53:54;13.02;;;7.90;;
7359;SDS011;3720;48.274;7.796;2022-10-20T01:56:29;9.38;;;7.55;;
7359;SDS011;3720;48.274;7.796;2022-10-20T01:59:19;9.05;;;7.43;;
7359;SDS011;3720;48.274;7.796;2022-10-20T02:02:17;11.82;;;7.38;;
7359;SDS011;3720;48.274;7.796;2022-10-20T02:05:05;9.50;;;7.40;;
7359;SDS011;3720;48.274;7.796;2022-10-20T02:07:47;11.60;;;8.20;;
7359;SDS011;3720;48.274;7.796;2022-10-20T02:10:20;9.82;;;8.05;;
7359;SDS011;3720;48.274;7.796;2022-10-20T02:12:59;10.05;;;8.50;;
7359;SDS011;3720;48.274;7.796;2022-10-20T02:15:37;9.98;;;7.53;;
7359;SDS011;3720;48.274;7.796;2022-10-20T02:18:15;9.63;;;7.82;;
7359;SDS011;3720;48.274;7.796;2022-10-20T02:20:55;10.23;;;7.43;;
7359;SDS011;3720;48.274;7.796;2022-10-20T02:23:29;10.82;;;8.15;;
7359;SDS011;3720;48.274;7.796;2022-10-20T02:26:04;10.80;;;7.72;;
7359;SDS011;3720;48.274;7.796;2022-10-20T02:28:38;14.25;;;8.02;;
7359;SDS011;3720;48.274;7.796;2022-10-20T02:31:15;11.05;;;9.07;;
7359;SDS011;3720;48.274;7.796;2022-10-20T02:33:48;10.20;;;8.25;;
7359;SDS011;3720;48.274;7.796;2022-10-20T02:36:24;12.77;;;8.52;;
7359;SDS011;3720;48.274;7.796;2022-10-20T02:38:58;12.82;;;8.95;;
7359;SDS011;3720;48.274;7.796;2022-10-20T02:41:30;12.63;;;9.80;;
7359;SDS011;3720;48.274;7.796;2022-10-20T02:44:02;12.82;;;9.80;;
7359;SDS011;3720;48.274;7.796;2022-10-20T02:46:35;13.70;;;10.35;;
7359;SDS011;3720;48.274;7.796;2022-10-20T02:49:07;14.50;;;10.98;;
7359;SDS011;3720;48.274;7.796;2022-10-20T02:51:39;13.68;;;10.15;;
7359;SDS011;3720;48.274;7.796;2022-10-20T02:54:11;13.52;;;10.20;;
7359;SDS011;3720;48.274;7.796;2022-10-20T02:56:43;12.65;;;9.35;;
7359;SDS011;3720;48.274;7.796;2022-10-20T02:59:15;11.50;;;9.07;;
7359;SDS011;3720;48.274;7.796;2022-10-20T03:01:49;11.65;;;8.82;;
7359;SDS011;3720;48.274;7.796;2022-10-20T03:04:21;10.10;;;8.15;;
7359;SDS011;3720;48.274;7.796;2022-10-20T03:06:53;9.27;;;8.38;;
7359;SDS011;3720;48.274;7.796;2022-10-20T03:09:25;9.48;;;8.15;;
7359;SDS011;3720;48.274;7.796;2022-10-20T03:11:57;10.20;;;8.52;;
7359;SDS011;3720;48.274;7.796;2022-10-20T03:14:29;9.57;;;8.57;;
7359;SDS011;3720;48.274;7.796;2022-10-20T03:17:02;9.68;;;8.60;;
7359;SDS011;3720;48.274;7.796;2022-10-20T03:19:34;10.82;;;8.48;;
7359;SDS011;3720;48.274;7.796;2022-10-20T03:22:06;10.57;;;9.13;;
7359;SDS011;3720;48.274;7.796;2022-10-20T03:24:38;10.20;;;8.98;;
7359;SDS011;3720;48.274;7.796;2022-10-20T03:27:10;10.40;;;9.18;;
7359;SDS011;3720;48.274;7.796;2022-10-20T03:29:43;10.05;;;8.98;;
7359;SDS011;3720;48.274;7.796;2022-10-20T03:32:16;13.20;;;9.88;;
7359;SDS011;3720;48.274;7.796;2022-10-20T03:34:48;11.95;;;9.63;;
7359;SDS011;3720;48.274;7.796;2022-10-20T03:37:20;13.27;;;9.70;;
7359;SDS011;3720;48.274;7.796;2022-10-20T03:39:52;15.13;;;10.57;;
7359;SDS011;3720;48.274;7.796;2022-10-20T03:42:23;13.57;;;9.82;;
7359;SDS011;3720;48.274;7.796;2022-10-20T03:44:55;16.70;;;11.02;;
7359;SDS011;3720;48.274;7.796;2022-10-20T03:47:28;17.10;;;10.88;;
7359;SDS011;3720;48.274;7.796;2022-10-20T03:50:00;11.43;;;9.10;;
7359;SDS011;3720;48.274;7.796;2022-10-20T03:52:32;11.63;;;8.75;;
7359;SDS011;3720;48.274;7.796;2022-10-20T03:55:05;10.65;;;8.25;;
7359;SDS011;3720;48.274;7.796;2022-10-20T03:57:38;12.85;;;8.55;;
7359;SDS011;3720;48.274;7.796;2022-10-20T04:00:10;14.65;;;9.45;;
7359;SDS011;3720;48.274;7.796;2022-10-20T04:02:45;17.63;;;9.50;;
7359;SDS011;3720;48.274;7.796;2022-10-20T04:05:18;14.63;;;9.63;;
7359;SDS011;3720;48.274;7.796;2022-10-20T04:07:51;16.80;;;9.63;;
7359;SDS011;3720;48.274;7.796;2022-10-20T04:10:23;14.95;;;10.65;;
7359;SDS011;3720;48.274;7.796;2022-10-20T04:12:56;15.55;;;9.77;;
7359;SDS011;3720;48.274;7.796;2022-10-20T04:15:28;18.92;;;11.65;;
7359;SDS011;3720;48.274;7.796;2022-10-20T04:18:02;19.65;;;11.93;;
7359;SDS011;3720;48.274;7.796;2022-10-20T04:20:34;20.98;;;11.70;;
7359;SDS011;3720;48.274;7.796;2022-10-20T04:23:07;17.00;;;11.32;;
7359;SDS011;3720;48.274;7.796;2022-10-20T04:25:39;18.25;;;11.50;;
7359;SDS011;3720;48.274;7.796;2022-10-20T04:28:15;17.00;;;10.85;;
7359;SDS011;3720;48.274;7.796;2022-10-20T04:30:48;15.18;;;10.65;;
7359;SDS011;3720;48.274;7.796;2022-10-20T04:33:22;13.63;;;10.07;;
7359;SDS011;3720;48.274;7.796;2022-10-20T04:35:57;11.48;;;9.10;;
7359;SDS011;3720;48.274;7.796;2022-10-20T04:38:30;12.05;;;9.13;;
7359;SDS011;3720;48.274;7.796;2022-10-20T04:41:03;11.50;;;8.45;;
7359;SDS011;3720;48.274;7.796;2022-10-20T04:43:35;9.65;;;7.97;;
7359;SDS011;3720;48.274;7.796;2022-10-20T04:46:09;12.63;;;8.98;;
7359;SDS011;3720;48.274;7.796;2022-10-20T04:48:42;12.10;;;9.48;;
7359;SDS011;3720;48.274;7.796;2022-10-20T04:51:14;10.27;;;8.00;;
7359;SDS011;3720;48.274;7.796;2022-10-20T04:53:46;10.43;;;8.45;;
7359;SDS011;3720;48.274;7.796;2022-10-20T04:56:19;11.98;;;8.45;;
7359;SDS011;3720;48.274;7.796;2022-10-20T04:58:52;12.38;;;8.95;;
7359;SDS011;3720;48.274;7.796;2022-10-20T05:01:27;12.63;;;8.93;;
7359;SDS011;3720;48.274;7.796;2022-10-20T05:04:01;12.57;;;8.60;;
7359;SDS011;3720;48.274;7.796;2022-10-20T05:06:33;10.85;;;8.23;;
7359;SDS011;3720;48.274;7.796;2022-10-20T05:09:05;10.05;;;7.70;;
7359;SDS011;3720;48.274;7.796;2022-10-20T05:11:37;10.38;;;8.07;;
7359;SDS011;3720;48.274;7.796;2022-10-20T05:14:09;9.77;;;7.72;;
7359;SDS011;3720;48.274;7.796;2022-10-20T05:16:41;11.80;;;8.48;;
7359;SDS011;3720;48.274;7.796;2022-10-20T05:19:14;11.60;;;8.45;;
7359;SDS011;3720;48.274;7.796;2022-10-20T05:21:46;13.70;;;9.55;;
7359;SDS011;3720;48.274;7.796;2022-10-20T05:24:18;14.07;;;10.73;;
7359;SDS011;3720;48.274;7.796;2022-10-20T05:26:52;12.40;;;9.73;;
7359;SDS011;3720;48.274;7.796;2022-10-20T05:29:24;11.85;;;9.15;;
7359;SDS011;3720;48.274;7.796;2022-10-20T05:31:55;14.80;;;9.70;;
7359;SDS011;3720;48.274;7.796;2022-10-20T05:34:29;14.73;;;10.82;;
7359;SDS011;3720;48.274;7.796;2022-10-20T05:37:01;15.15;;;11.25;;
7359;SDS011;3720;48.274;7.796;2022-10-20T05:39:32;15.57;;;11.25;;
7359;SDS011;3720;48.274;7.796;2022-10-20T05:42:04;13.95;;;10.70;;
7359;SDS011;3720;48.274;7.796;2022-10-20T05:44:36;16.40;;;11.63;;
7359;SDS011;3720;48.274;7.796;2022-10-20T05:47:08;16.33;;;11.93;;
7359;SDS011;3720;48.274;7.796;2022-10-20T05:49:42;17.35;;;12.00;;
7359;SDS011;3720;48.274;7.796;2022-10-20T05:52:14;15.50;;;11.30;;
7359;SDS011;3720;48.274;7.796;2022-10-20T05:54:45;14.02;;;10.48;;
7359;SDS011;3720;48.274;7.796;2022-10-20T05:57:17;16.63;;;12.25;;
7359;SDS011;3720;48.274;7.796;2022-10-20T05:59:49;16.52;;;11.48;;
7359;SDS011;3720;48.274;7.796;2022-10-20T06:02:21;15.93;;;11.63;;
7359;SDS011;3720;48.274;7.796;2022-10-20T06:04:54;15.93;;;11.55;;
7359;SDS011;3720;48.274;7.796;2022-10-20T06:07:26;18.20;;;11.50;;
7359;SDS011;3720;48.274;7.796;2022-10-20T06:09:58;16.67;;;11.45;;
7359;SDS011;3720;48.274;7.796;2022-10-20T06:12:30;17.90;;;11.68;;
7359;SDS011;3720;48.274;7.796;2022-10-20T06:15:02;20.15;;;11.88;;
7359;SDS011;3720;48.274;7.796;2022-10-20T06:17:35;16.20;;;11.45;;
7359;SDS011;3720;48.274;7.796;2022-10-20T06:20:08;21.42;;;11.45;;
7359;SDS011;3720;48.274;7.796;2022-10-20T06:22:41;16.45;;;11.27;;
7359;SDS011;3720;48.274;7.796;2022-10-20T06:25:13;15.88;;;10.98;;
7359;SDS011;3720;48.274;7.796;2022-10-20T06:27:46;22.40;;;12.75;;
7359;SDS011;3720;48.274;7.796;2022-10-20T06:30:17;14.68;;;11.63;;
7359;SDS011;3720;48.274;7.796;2022-10-20T06:32:52;15.10;;;11.30;;
7359;SDS011;3720;48.274;7.796;2022-10-20T06:35:26;14.50;;;10.43;;
7359;SDS011;3720;48.274;7.796;2022-10-20T06:37:57;15.25;;;11.13;;
7359;SDS011;3720;48.274;7.796;2022-10-20T06:40:29;12.98;;;10.25;;
7359;SDS011;3720;48.274;7.796;2022-10-20T06:43:01;14.02;;;11.07;;
7359;SDS011;3720;48.274;7.796;2022-10-20T06:45:33;12.35;;;9.95;;
7359;SDS011;3720;48.274;7.796;2022-10-20T06:48:05;15.02;;;11.43;;
7359;SDS011;3720;48.274;7.796;2022-10-20T06:50:38;14.70;;;10.30;;
7359;SDS011;3720;48.274;7.796;2022-10-20T06:53:10;12.88;;;10.38;;
7359;SDS011;3720;48.274;7.796;2022-10-20T06:55:42;12.15;;;10.38;;
7359;SDS011;3720;48.274;7.796;2022-10-20T06:58:14;12.93;;;9.88;;
7359;SDS011;3720;48.274;7.796;2022-10-20T07:00:46;11.50;;;8.93;;
7359;SDS011;3720;48.274;7.796;2022-10-20T07:03:17;11.00;;;8.68;;
7359;SDS011;3720;48.274;7.796;2022-10-20T07:05:51;11.57;;;10.05;;
7359;SDS011;3720;48.274;7.796;2022-10-20T07:08:23;11.05;;;9.40;;
7359;SDS011;3720;48.274;7.796;2022-10-20T07:10:58;10.98;;;9.23;;
7359;SDS011;3720;48.274;7.796;2022-10-20T07:13:31;12.07;;;9.32;;
7359;SDS011;3720;48.274;7.796;2022-10-20T07:16:06;12.15;;;10.32;;
7359;SDS011;3720;48.274;7.796;2022-10-20T07:18:39;14.82;;;9.25;;
7359;SDS011;3720;48.274;7.796;2022-10-20T07:21:13;12.18;;;9.18;;
7359;SDS011;3720;48.274;7.796;2022-10-20T07:23:47;12.93;;;8.80;;
7359;SDS011;3720;48.274;7.796;2022-10-20T07:26:21;15.75;;;10.10;;
7359;SDS011;3720;48.274;7.796;2022-10-20T07:28:54;12.25;;;9.43;;
7359;SDS011;3720;48.274;7.796;2022-10-20T07:31:28;12.18;;;9.35;;
7359;SDS011;3720;48.274;7.796;2022-10-20T07:34:02;12.75;;;9.15;;
7359;SDS011;3720;48.274;7.796;2022-10-20T07:36:36;12.02;;;9.55;;
7359;SDS011;3720;48.274;7.796;2022-10-20T07:39:10;15.45;;;9.77;;
7359;SDS011;3720;48.274;7.796;2022-10-20T07:41:42;18.05;;;10.18;;
7359;SDS011;3720;48.274;7.796;2022-10-20T07:44:16;16.08;;;10.80;;
7359;SDS011;3720;48.274;7.796;2022-10-20T07:46:48;14.27;;;10.70;;
7359;SDS011;3720;48.274;7.796;2022-10-20T07:49:20;12.98;;;9.93;;
7359;SDS011;3720;48.274;7.796;2022-10-20T07:51:53;16.92;;;11.23;;
7359;SDS011;3720;48.274;7.796;2022-10-20T07:54:26;16.98;;;11.00;;
7359;SDS011;3720;48.274;7.796;2022-10-20T07:56:58;13.18;;;10.27;;
7359;SDS011;3720;48.274;7.796;2022-10-20T07:59:30;15.13;;;10.93;;
7359;SDS011;3720;48.274;7.796;2022-10-20T08:02:02;14.75;;;11.45;;
7359;SDS011;3720;48.274;7.796;2022-10-20T08:04:34;18.25;;;13.30;;
7359;SDS011;3720;48.274;7.796;2022-10-20T08:07:07;21.30;;;12.70;;
7359;SDS011;3720;48.274;7.796;2022-10-20T08:09:39;20.35;;;13.23;;
7359;SDS011;3720;48.274;7.796;2022-10-20T08:12:11;20.00;;;13.63;;
7359;SDS011;3720;48.274;7.796;2022-10-20T08:14:43;22.05;;;13.00;;
7359;SDS011;3720;48.274;7.796;2022-10-20T08:17:15;24.58;;;13.00;;
7359;SDS011;3720;48.274;7.796;2022-10-20T08:19:47;18.58;;;12.07;;
7359;SDS011;3720;48.274;7.796;2022-10-20T08:22:20;17.05;;;11.38;;
7359;SDS011;3720;48.274;7.796;2022-10-20T08:24:52;20.13;;;10.93;;
7359;SDS011;3720;48.274;7.796;2022-10-20T08:27:24;15.93;;;9.98;;
7359;SDS011;3720;48.274;7.796;2022-10-20T08:29:56;20.58;;;10.50;;
7359;SDS011;3720;48.274;7.796;2022-10-20T08:32:28;15.20;;;10.07;;
7359;SDS011;3720;48.274;7.796;2022-10-20T08:35:00;14.95;;;9.80;;
7359;SDS011;3720;48.274;7.796;2022-10-20T08:37:33;15.30;;;9.70;;
7359;SDS011;3720;48.274;7.796;2022-10-20T08:40:06;15.70;;;10.43;;
7359;SDS011;3720;48.274;7.796;2022-10-20T08:42:41;15.30;;;10.35;;
7359;SDS011;3720;48.274;7.796;2022-10-20T08:45:15;15.27;;;10.10;;
7359;SDS011;3720;48.274;7.796;2022-10-20T08:47:51;17.33;;;10.25;;
7359;SDS011;3720;48.274;7.796;2022-10-20T08:50:25;13.55;;;9.98;;
7359;SDS011;3720;48.274;7.796;2022-10-20T08:53:01;15.43;;;9.55;;
7359;SDS011;3720;48.274;7.796;2022-10-20T08:55:33;13.43;;;10.05;;
7359;SDS011;3720;48.274;7.796;2022-10-20T08:58:06;15.10;;;10.45;;
7359;SDS011;3720;48.274;7.796;2022-10-20T09:00:43;14.82;;;10.82;;
7359;SDS011;3720;48.274;7.796;2022-10-20T09:03:16;14.30;;;10.50;;
7359;SDS011;3720;48.274;7.796;2022-10-20T09:05:52;17.98;;;11.27;;
7359;SDS011;3720;48.274;7.796;2022-10-20T09:08:28;19.05;;;10.65;;
7359;SDS011;3720;48.274;7.796;2022-10-20T09:11:02;15.07;;;10.15;;
7359;SDS011;3720;48.274;7.796;2022-10-20T09:13:37;13.88;;;10.10;;
7359;SDS011;3720;48.274;7.796;2022-10-20T09:16:11;15.63;;;10.02;;
7359;SDS011;3720;48.274;7.796;2022-10-20T09:18:49;13.60;;;9.05;;
7359;SDS011;3720;48.274;7.796;2022-10-20T09:21:26;14.90;;;10.35;;
7359;SDS011;3720;48.274;7.796;2022-10-20T09:24:03;15.75;;;10.40;;
7359;SDS011;3720;48.274;7.796;2022-10-20T09:26:37;15.32;;;10.45;;
7359;SDS011;3720;48.274;7.796;2022-10-20T09:29:13;14.70;;;9.52;;
7359;SDS011;3720;48.274;7.796;2022-10-20T09:31:47;14.38;;;10.23;;
7359;SDS011;3720;48.274;7.796;2022-10-20T09:34:22;13.43;;;9.50;;
7359;SDS011;3720;48.274;7.796;2022-10-20T09:36:57;18.05;;;10.27;;
7359;SDS011;3720;48.274;7.796;2022-10-20T09:39:36;18.25;;;10.02;;
7359;SDS011;3720;48.274;7.796;2022-10-20T09:42:13;20.13;;;14.05;;
7359;SDS011;3720;48.274;7.796;2022-10-20T09:44:50;29.15;;;19.17;;
7359;SDS011;3720;48.274;7.796;2022-10-20T09:47:25;18.10;;;13.15;;
7359;SDS011;3720;48.274;7.796;2022-10-20T09:49:59;16.00;;;11.10;;
7359;SDS011;3720;48.274;7.796;2022-10-20T09:52:34;17.95;;;11.23;;
7359;SDS011;3720;48.274;7.796;2022-10-20T09:55:22;17.63;;;10.70;;
7359;SDS011;3720;48.274;7.796;2022-10-20T09:57:57;16.00;;;11.45;;
7359;SDS011;3720;48.274;7.796;2022-10-20T10:00:33;19.00;;;11.85;;
7359;SDS011;3720;48.274;7.796;2022-10-20T10:03:08;18.23;;;11.48;;
7359;SDS011;3720;48.274;7.796;2022-10-20T10:05:50;16.15;;;11.02;;
7359;SDS011;3720;48.274;7.796;2022-10-20T10:08:24;15.02;;;9.55;;
7359;SDS011;3720;48.274;7.796;2022-10-20T10:11:01;18.23;;;10.88;;
7359;SDS011;3720;48.274;7.796;2022-10-20T10:13:36;16.77;;;11.93;;
7359;SDS011;3720;48.274;7.796;2022-10-20T10:16:12;14.65;;;10.77;;
7359;SDS011;3720;48.274;7.796;2022-10-20T10:18:52;16.83;;;11.27;;
7359;SDS011;3720;48.274;7.796;2022-10-20T10:21:28;19.80;;;12.40;;
7359;SDS011;3720;48.274;7.796;2022-10-20T10:24:23;15.35;;;10.60;;
7359;SDS011;3720;48.274;7.796;2022-10-20T10:27:24;13.00;;;9.93;;
7359;SDS011;3720;48.274;7.796;2022-10-20T10:30:16;19.85;;;12.05;;
7359;SDS011;3720;48.274;7.796;2022-10-20T10:32:57;12.65;;;10.23;;
7359;SDS011;3720;48.274;7.796;2022-10-20T10:35:30;13.80;;;9.43;;
7359;SDS011;3720;48.274;7.796;2022-10-20T10:38:07;14.32;;;9.15;;
7359;SDS011;3720;48.274;7.796;2022-10-20T10:40:42;20.65;;;11.95;;
7359;SDS011;3720;48.274;7.796;2022-10-20T10:43:25;15.57;;;11.05;;
7359;SDS011;3720;48.274;7.796;2022-10-20T10:46:03;15.27;;;10.68;;
7359;SDS011;3720;48.274;7.796;2022-10-20T10:48:42;16.83;;;11.52;;
7359;SDS011;3720;48.274;7.796;2022-10-20T10:51:33;17.85;;;12.07;;
7359;SDS011;3720;48.274;7.796;2022-10-20T10:54:19;18.02;;;10.80;;
7359;SDS011;3720;48.274;7.796;2022-10-20T10:57:12;17.85;;;11.15;;
7359;SDS011;3720;48.274;7.796;2022-10-20T10:59:50;16.95;;;11.02;;
7359;SDS011;3720;48.274;7.796;2022-10-20T11:02:26;15.25;;;11.13;;
7359;SDS011;3720;48.274;7.796;2022-10-20T11:05:45;13.23;;;10.32;;
7359;SDS011;3720;48.274;7.796;2022-10-20T11:08:29;14.57;;;10.30;;
7359;SDS011;3720;48.274;7.796;2022-10-20T11:11:17;13.65;;;10.63;;
7359;SDS011;3720;48.274;7.796;2022-10-20T11:14:05;14.32;;;10.23;;
7359;SDS011;3720;48.274;7.796;2022-10-20T11:16:47;22.10;;;11.75;;
7359;SDS011;3720;48.274;7.796;2022-10-20T11:19:40;14.73;;;9.95;;
7359;SDS011;3720;48.274;7.796;2022-10-20T11:22:29;13.05;;;9.57;;
7359;SDS011;3720;48.274;7.796;2022-10-20T11:25:10;17.83;;;10.70;;
7359;SDS011;3720;48.274;7.796;2022-10-20T11:27:53;14.40;;;10.02;;
7359;SDS011;3720;48.274;7.796;2022-10-20T11:30:27;14.23;;;9.70;;
7359;SDS011;3720;48.274;7.796;2022-10-20T11:33:05;12.60;;;10.05;;
7359;SDS011;3720;48.274;7.796;2022-10-20T11:35:47;11.38;;;8.75;;
7359;SDS011;3720;48.274;7.796;2022-10-20T11:38:24;18.92;;;11.15;;
7359;SDS011;3720;48.274;7.796;2022-10-20T11:41:02;15.45;;;11.18;;
7359;SDS011;3720;48.274;7.796;2022-10-20T11:43:38;17.83;;;11.90;;
7359;SDS011;3720;48.274;7.796;2022-10-20T11:46:16;19.75;;;11.93;;
7359;SDS011;3720;48.274;7.796;2022-10-20T11:51:35;14.77;;;10.10;;
7359;SDS011;3720;48.274;7.796;2022-10-20T11:57:32;14.05;;;9.95;;
7359;SDS011;3720;48.274;7.796;2022-10-20T12:00:22;12.88;;;9.05;;
7359;SDS011;3720;48.274;7.796;2022-10-20T12:09:30;14.73;;;9.77;;
7359;SDS011;3720;48.274;7.796;2022-10-20T12:12:25;11.73;;;9.00;;
7359;SDS011;3720;48.274;7.796;2022-10-20T12:15:13;15.98;;;9.82;;
7359;SDS011;3720;48.274;7.796;2022-10-20T12:17:50;15.65;;;10.05;;
7359;SDS011;3720;48.274;7.796;2022-10-20T12:29:51;17.35;;;11.13;;
7359;SDS011;3720;48.274;7.796;2022-10-20T12:32:35;17.45;;;10.88;;
7359;SDS011;3720;48.274;7.796;2022-10-20T12:35:28;14.52;;;10.20;;
7359;SDS011;3720;48.274;7.796;2022-10-20T12:38:21;18.63;;;10.75;;
7359;SDS011;3720;48.274;7.796;2022-10-20T12:40:55;15.52;;;10.88;;
7359;SDS011;3720;48.274;7.796;2022-10-20T12:43:31;16.42;;;9.95;;
7359;SDS011;3720;48.274;7.796;2022-10-20T12:46:19;12.05;;;9.90;;
7359;SDS011;3720;48.274;7.796;2022-10-20T12:48:54;13.05;;;8.90;;
7359;SDS011;3720;48.274;7.796;2022-10-20T12:51:31;14.68;;;10.27;;
7359;SDS011;3720;48.274;7.796;2022-10-20T12:54:07;12.70;;;9.35;;
7359;SDS011;3720;48.274;7.796;2022-10-20T12:56:50;15.90;;;10.70;;
7359;SDS011;3720;48.274;7.796;2022-10-20T13:05:24;21.70;;;11.02;;
7359;SDS011;3720;48.274;7.796;2022-10-20T13:08:15;14.68;;;9.38;;
7359;SDS011;3720;48.274;7.796;2022-10-20T13:10:55;18.35;;;10.27;;
7359;SDS011;3720;48.274;7.796;2022-10-20T13:13:50;18.55;;;10.95;;
7359;SDS011;3720;48.274;7.796;2022-10-20T13:16:28;15.60;;;9.77;;
7359;SDS011;3720;48.274;7.796;2022-10-20T13:19:06;16.55;;;10.52;;
7359;SDS011;3720;48.274;7.796;2022-10-20T13:21:39;13.60;;;9.88;;
7359;SDS011;3720;48.274;7.796;2022-10-20T13:24:12;13.13;;;9.52;;
7359;SDS011;3720;48.274;7.796;2022-10-20T13:26:47;14.65;;;9.40;;
7359;SDS011;3720;48.274;7.796;2022-10-20T13:29:24;11.73;;;9.25;;
7359;SDS011;3720;48.274;7.796;2022-10-20T13:32:02;13.32;;;9.27;;
7359;SDS011;3720;48.274;7.796;2022-10-20T13:34:42;14.00;;;8.88;;
7359;SDS011;3720;48.274;7.796;2022-10-20T13:37:24;13.38;;;9.30;;
7359;SDS011;3720;48.274;7.796;2022-10-20T13:40:16;12.20;;;9.57;;
7359;SDS011;3720;48.274;7.796;2022-10-20T13:43:00;12.35;;;7.95;;
7359;SDS011;3720;48.274;7.796;2022-10-20T13:45:43;14.02;;;9.02;;
7359;SDS011;3720;48.274;7.796;2022-10-20T13:48:34;13.65;;;9.57;;
7359;SDS011;3720;48.274;7.796;2022-10-20T13:51:28;14.68;;;9.45;;
7359;SDS011;3720;48.274;7.796;2022-10-20T13:54:04;15.63;;;9.88;;
7359;SDS011;3720;48.274;7.796;2022-10-20T13:56:38;14.05;;;8.52;;
7359;SDS011;3720;48.274;7.796;2022-10-20T13:59:18;14.50;;;10.07;;
7359;SDS011;3720;48.274;7.796;2022-10-20T14:01:52;15.43;;;9.57;;
7359;SDS011;3720;48.274;7.796;2022-10-20T14:04:27;15.18;;;9.13;;
7359;SDS011;3720;48.274;7.796;2022-10-20T14:07:02;15.50;;;10.90;;
7359;SDS011;3720;48.274;7.796;2022-10-20T14:09:37;14.73;;;9.93;;
7359;SDS011;3720;48.274;7.796;2022-10-20T14:12:10;12.98;;;9.55;;
7359;SDS011;3720;48.274;7.796;2022-10-20T14:14:54;15.63;;;10.55;;
7359;SDS011;3720;48.274;7.796;2022-10-20T14:17:28;17.15;;;9.90;;
7359;SDS011;3720;48.274;7.796;2022-10-20T14:20:07;13.35;;;8.63;;
7359;SDS011;3720;48.274;7.796;2022-10-20T14:22:49;16.40;;;10.00;;
7359;SDS011;3720;48.274;7.796;2022-10-20T14:25:22;15.77;;;10.75;;
7359;SDS011;3720;48.274;7.796;2022-10-20T14:27:56;17.35;;;11.00;;
7359;SDS011;3720;48.274;7.796;2022-10-20T14:30:28;16.52;;;9.88;;
7359;SDS011;3720;48.274;7.796;2022-10-20T14:33:01;19.35;;;10.80;;
7359;SDS011;3720;48.274;7.796;2022-10-20T14:35:37;15.90;;;8.82;;
7359;SDS011;3720;48.274;7.796;2022-10-20T14:38:17;16.40;;;9.45;;
7359;SDS011;3720;48.274;7.796;2022-10-20T14:40:52;15.18;;;10.95;;
7359;SDS011;3720;48.274;7.796;2022-10-20T14:43:29;16.58;;;11.05;;
7359;SDS011;3720;48.274;7.796;2022-10-20T14:46:09;16.10;;;10.52;;
7359;SDS011;3720;48.274;7.796;2022-10-20T14:48:43;18.48;;;12.85;;
7359;SDS011;3720;48.274;7.796;2022-10-20T14:51:27;20.40;;;11.50;;
7359;SDS011;3720;48.274;7.796;2022-10-20T14:54:22;19.03;;;12.10;;
7359;SDS011;3720;48.274;7.796;2022-10-20T14:56:57;20.25;;;12.27;;
7359;SDS011;3720;48.274;7.796;2022-10-20T14:59:31;19.88;;;13.77;;
7359;SDS011;3720;48.274;7.796;2022-10-20T15:02:07;19.35;;;12.50;;
7359;SDS011;3720;48.274;7.796;2022-10-20T15:04:42;21.25;;;13.90;;
7359;SDS011;3720;48.274;7.796;2022-10-20T15:07:16;26.10;;;15.20;;
7359;SDS011;3720;48.274;7.796;2022-10-20T15:09:55;21.20;;;14.00;;
7359;SDS011;3720;48.274;7.796;2022-10-20T15:12:30;21.75;;;14.35;;
7359;SDS011;3720;48.274;7.796;2022-10-20T15:15:04;21.90;;;13.68;;
7359;SDS011;3720;48.274;7.796;2022-10-20T15:17:49;22.88;;;15.25;;
7359;SDS011;3720;48.274;7.796;2022-10-20T15:20:29;21.05;;;13.55;;
7359;SDS011;3720;48.274;7.796;2022-10-20T15:23:04;27.80;;;16.52;;
7359;SDS011;3720;48.274;7.796;2022-10-20T15:25:46;20.52;;;14.80;;
7359;SDS011;3720;48.274;7.796;2022-10-20T15:28:33;17.35;;;12.95;;
7359;SDS011;3720;48.274;7.796;2022-10-20T15:31:14;22.02;;;15.80;;
7359;SDS011;3720;48.274;7.796;2022-10-20T15:33:49;27.48;;;16.73;;
7359;SDS011;3720;48.274;7.796;2022-10-20T15:36:23;23.25;;;15.85;;
7359;SDS011;3720;48.274;7.796;2022-10-20T15:38:58;24.88;;;16.38;;
7359;SDS011;3720;48.274;7.796;2022-10-20T15:41:33;24.10;;;14.85;;
7359;SDS011;3720;48.274;7.796;2022-10-20T15:44:09;20.40;;;15.13;;
7359;SDS011;3720;48.274;7.796;2022-10-20T15:46:44;22.17;;;14.00;;
7359;SDS011;3720;48.274;7.796;2022-10-20T15:49:16;20.95;;;14.48;;
7359;SDS011;3720;48.274;7.796;2022-10-20T15:51:48;21.45;;;14.60;;
7359;SDS011;3720;48.274;7.796;2022-10-20T15:54:21;23.20;;;15.65;;
7359;SDS011;3720;48.274;7.796;2022-10-20T15:56:54;23.17;;;15.98;;
7359;SDS011;3720;48.274;7.796;2022-10-20T15:59:26;24.10;;;18.27;;
7359;SDS011;3720;48.274;7.796;2022-10-20T16:01:58;25.02;;;17.45;;
7359;SDS011;3720;48.274;7.796;2022-10-20T16:04:29;23.23;;;16.95;;
7359;SDS011;3720;48.274;7.796;2022-10-20T16:07:01;23.40;;;17.05;;
7359;SDS011;3720;48.274;7.796;2022-10-20T16:09:33;25.35;;;17.58;;
7359;SDS011;3720;48.274;7.796;2022-10-20T16:12:07;19.80;;;15.63;;
7359;SDS011;3720;48.274;7.796;2022-10-20T16:14:40;18.20;;;13.90;;
7359;SDS011;3720;48.274;7.796;2022-10-20T16:17:13;23.65;;;16.02;;